sensor_id;sensor_type;location;lat;lon;timestamp;pressure;altitude;pressure_sealevel;temperature;humidity
34073;BME280;20346;52.702;16.886;2022-11-15T00:00:10;101071.39;;;4.91;85.03
34073;BME280;20346;52.702;16.886;2022-11-15T00:02:55;101070.55;;;4.92;85.01
34073;BME280;20346;52.702;16.886;2022-11-15T00:05:40;101062.89;;;4.93;85.05
34073;BME280;20346;52.702;16.886;2022-11-15T00:08:24;101056.56;;;4.99;85.10
34073;BME280;20346;52.702;16.886;2022-11-15T00:11:13;101056.15;;;5.00;85.08
34073;BME280;20346;52.702;16.886;2022-11-15T00:13:58;101050.60;;;5.01;85.11
34073;BME280;20346;52.702;16.886;2022-11-15T00:16:45;101051.88;;;5.01;85.13
34073;BME280;20346;52.702;16.886;2022-11-15T00:19:30;101051.11;;;5.06;85.18
34073;BME280;20346;52.702;16.886;2022-11-15T00:22:15;101042.58;;;5.07;85.16
34073;BME280;20346;52.702;16.886;2022-11-15T00:25:01;101046.87;;;5.10;85.22
34073;BME280;20346;52.702;16.886;2022-11-15T00:27:46;101052.05;;;5.13;85.21
34073;BME280;20346;52.702;16.886;2022-11-15T00:30:31;101048.22;;;5.14;85.25
34073;BME280;20346;52.702;16.886;2022-11-15T00:33:16;101052.12;;;5.19;85.29
34073;BME280;20346;52.702;16.886;2022-11-15T00:36:07;101051.70;;;5.21;85.24
34073;BME280;20346;52.702;16.886;2022-11-15T00:38:55;101047.89;;;5.24;85.26
34073;BME280;20346;52.702;16.886;2022-11-15T00:41:41;101046.15;;;5.21;85.14
34073;BME280;20346;52.702;16.886;2022-11-15T00:44:26;101045.26;;;5.16;85.20
34073;BME280;20346;52.702;16.886;2022-11-15T00:47:11;101047.84;;;5.18;85.30
34073;BME280;20346;52.702;16.886;2022-11-15T00:49:56;101043.14;;;5.20;85.32
34073;BME280;20346;52.702;16.886;2022-11-15T00:52:42;101044.89;;;5.23;85.35
34073;BME280;20346;52.702;16.886;2022-11-15T00:55:28;101044.92;;;5.26;85.38
34073;BME280;20346;52.702;16.886;2022-11-15T00:58:13;101040.22;;;5.25;85.33
34073;BME280;20346;52.702;16.886;2022-11-15T01:01:06;101037.17;;;5.21;85.28
34073;BME280;20346;52.702;16.886;2022-11-15T01:03:52;101038.03;;;5.19;85.33
34073;BME280;20346;52.702;16.886;2022-11-15T01:06:37;101033.75;;;5.21;85.43
34073;BME280;20346;52.702;16.886;2022-11-15T01:09:22;101025.66;;;5.23;85.46
34073;BME280;20346;52.702;16.886;2022-11-15T01:12:07;101026.56;;;5.26;85.50
34073;BME280;20346;52.702;16.886;2022-11-15T01:14:54;101025.75;;;5.30;85.51
34073;BME280;20346;52.702;16.886;2022-11-15T01:17:38;101020.22;;;5.32;85.47
34073;BME280;20346;52.702;16.886;2022-11-15T01:20:23;101024.11;;;5.36;85.60
34073;BME280;20346;52.702;16.886;2022-11-15T01:23:07;101022.38;;;5.35;85.59
34073;BME280;20346;52.702;16.886;2022-11-15T01:25:52;101021.91;;;5.30;85.52
34073;BME280;20346;52.702;16.886;2022-11-15T01:28:37;101023.16;;;5.27;85.60
34073;BME280;20346;52.702;16.886;2022-11-15T01:31:23;101015.90;;;5.28;85.57
34073;BME280;20346;52.702;16.886;2022-11-15T01:34:07;101008.58;;;5.23;85.62
34073;BME280;20346;52.702;16.886;2022-11-15T01:36:52;101010.70;;;5.22;85.71
34073;BME280;20346;52.702;16.886;2022-11-15T01:39:37;101009.45;;;5.25;85.78
34073;BME280;20346;52.702;16.886;2022-11-15T01:42:21;101003.47;;;5.25;85.74
34073;BME280;20346;52.702;16.886;2022-11-15T01:45:07;101000.05;;;5.24;85.79
34073;BME280;20346;52.702;16.886;2022-11-15T01:47:54;100998.38;;;5.28;85.84
34073;BME280;20346;52.702;16.886;2022-11-15T01:50:39;100985.96;;;5.26;85.81
34073;BME280;20346;52.702;16.886;2022-11-15T01:53:24;100994.11;;;5.28;85.90
34073;BME280;20346;52.702;16.886;2022-11-15T01:56:11;100990.31;;;5.33;85.91
34073;BME280;20346;52.702;16.886;2022-11-15T01:58:58;100984.78;;;5.35;85.86
34073;BME280;20346;52.702;16.886;2022-11-15T02:01:44;100985.20;;;5.35;85.88
34073;BME280;20346;52.702;16.886;2022-11-15T02:04:31;100986.06;;;5.35;85.84
34073;BME280;20346;52.702;16.886;2022-11-15T02:07:17;100978.83;;;5.38;85.94
34073;BME280;20346;52.702;16.886;2022-11-15T02:10:04;100979.70;;;5.40;85.89
34073;BME280;20346;52.702;16.886;2022-11-15T02:12:50;100982.30;;;5.43;85.95
34073;BME280;20346;52.702;16.886;2022-11-15T02:15:37;100975.86;;;5.40;85.81
34073;BME280;20346;52.702;16.886;2022-11-15T02:18:24;100970.68;;;5.35;85.86
34073;BME280;20346;52.702;16.886;2022-11-15T02:33:21;100957.78;;;5.27;85.99
34073;BME280;20346;52.702;16.886;2022-11-15T02:36:44;100965.89;;;5.27;86.08
34073;BME280;20346;52.702;16.886;2022-11-15T02:39:39;100969.34;;;5.30;86.16
34073;BME280;20346;52.702;16.886;2022-11-15T02:42:30;100963.75;;;5.26;86.02
34073;BME280;20346;52.702;16.886;2022-11-15T02:45:33;100960.27;;;5.21;86.02
34073;BME280;20346;52.702;16.886;2022-11-15T02:48:19;100960.67;;;5.16;86.08
34073;BME280;20346;52.702;16.886;2022-11-15T02:51:05;100961.11;;;5.17;86.20
34073;BME280;20346;52.702;16.886;2022-11-15T02:53:50;100953.44;;;5.19;86.26
34073;BME280;20346;52.702;16.886;2022-11-15T02:56:34;100955.16;;;5.23;86.29
34073;BME280;20346;52.702;16.886;2022-11-15T02:59:41;100953.02;;;5.22;86.17
34073;BME280;20346;52.702;16.886;2022-11-15T03:05:25;100943.20;;;5.23;86.35
34073;BME280;20346;52.702;16.886;2022-11-15T03:08:40;100934.66;;;5.23;86.22
34073;BME280;20346;52.702;16.886;2022-11-15T03:11:32;100938.48;;;5.21;86.27
34073;BME280;20346;52.702;16.886;2022-11-15T03:14:23;100942.33;;;5.21;86.25
34073;BME280;20346;52.702;16.886;2022-11-15T03:20:01;100942.77;;;5.22;86.34
34073;BME280;20346;52.702;16.886;2022-11-15T03:22:48;100934.21;;;5.19;86.28
34073;BME280;20346;52.702;16.886;2022-11-15T03:25:34;100937.63;;;5.19;86.34
34073;BME280;20346;52.702;16.886;2022-11-15T03:28:23;100926.94;;;5.18;86.36
34073;BME280;20346;52.702;16.886;2022-11-15T03:31:10;100927.36;;;5.18;86.35
34073;BME280;20346;52.702;16.886;2022-11-15T03:34:32;100923.09;;;5.18;86.40
34073;BME280;20346;52.702;16.886;2022-11-15T03:40:25;100931.58;;;5.13;86.39
34073;BME280;20346;52.702;16.886;2022-11-15T03:43:29;100934.11;;;5.10;86.46
34073;BME280;20346;52.702;16.886;2022-11-15T03:46:18;100929.41;;;5.09;86.45
34073;BME280;20346;52.702;16.886;2022-11-15T03:49:04;100925.95;;;5.07;86.43
34073;BME280;20346;52.702;16.886;2022-11-15T03:51:53;100920.89;;;5.12;86.58
34073;BME280;20346;52.702;16.886;2022-11-15T03:54:46;100912.73;;;5.09;86.46
34073;BME280;20346;52.702;16.886;2022-11-15T03:57:39;100913.16;;;5.09;86.53
34073;BME280;20346;52.702;16.886;2022-11-15T04:00:24;100916.60;;;5.11;86.62
34073;BME280;20346;52.702;16.886;2022-11-15T04:03:08;100908.55;;;5.16;86.65
34073;BME280;20346;52.702;16.886;2022-11-15T04:05:53;100907.28;;;5.20;86.58
34073;BME280;20346;52.702;16.886;2022-11-15T04:08:37;100903.03;;;5.19;86.51
34073;BME280;20346;52.702;16.886;2022-11-15T04:11:22;100906.44;;;5.21;86.56
34073;BME280;20346;52.702;16.886;2022-11-15T04:14:07;100902.61;;;5.23;86.54
34073;BME280;20346;52.702;16.886;2022-11-15T04:16:51;100899.20;;;5.24;86.55
34073;BME280;20346;52.702;16.886;2022-11-15T04:19:35;100888.48;;;5.21;86.40
34073;BME280;20346;52.702;16.886;2022-11-15T04:22:39;100888.45;;;5.15;86.35
34073;BME280;20346;52.702;16.886;2022-11-15T04:25:42;100893.55;;;5.12;86.50
34073;BME280;20346;52.702;16.886;2022-11-15T04:28:27;100900.40;;;5.13;86.56
34073;BME280;20346;52.702;16.886;2022-11-15T04:31:12;100899.59;;;5.17;86.62
34073;BME280;20346;52.702;16.886;2022-11-15T04:33:56;100895.76;;;5.19;86.59
34073;BME280;20346;52.702;16.886;2022-11-15T04:36:41;100894.04;;;5.18;86.56
34073;BME280;20346;52.702;16.886;2022-11-15T04:39:44;100897.88;;;5.18;86.55
34073;BME280;20346;52.702;16.886;2022-11-15T04:42:29;100891.49;;;5.19;86.63
34073;BME280;20346;52.702;16.886;2022-11-15T04:45:14;100896.62;;;5.22;86.63
34073;BME280;20346;52.702;16.886;2022-11-15T04:47:59;100897.93;;;5.25;86.65
34073;BME280;20346;52.702;16.886;2022-11-15T04:50:43;100895.80;;;5.26;86.61
34073;BME280;20346;52.702;16.886;2022-11-15T04:53:28;100886.81;;;5.25;86.44
34073;BME280;20346;52.702;16.886;2022-11-15T04:56:12;100885.08;;;5.22;86.46
34073;BME280;20346;52.702;16.886;2022-11-15T04:58:57;100879.52;;;5.18;86.48
34073;BME280;20346;52.702;16.886;2022-11-15T05:01:41;100876.95;;;5.18;86.54
34073;BME280;20346;52.702;16.886;2022-11-15T05:04:25;100883.36;;;5.18;86.55
34073;BME280;20346;52.702;16.886;2022-11-15T05:07:10;100876.53;;;5.19;86.56
34073;BME280;20346;52.702;16.886;2022-11-15T05:09:55;100868.78;;;5.13;86.40
34073;BME280;20346;52.702;16.886;2022-11-15T05:12:39;100874.73;;;5.10;86.54
34073;BME280;20346;52.702;16.886;2022-11-15T05:15:24;100867.05;;;5.10;86.59
34073;BME280;20346;52.702;16.886;2022-11-15T05:18:09;100873.03;;;5.11;86.56
34073;BME280;20346;52.702;16.886;2022-11-15T05:20:53;100880.73;;;5.12;86.63
34073;BME280;20346;52.702;16.886;2022-11-15T05:23:38;100872.97;;;5.05;86.41
34073;BME280;20346;52.702;16.886;2022-11-15T05:26:23;100857.51;;;4.97;86.41
34073;BME280;20346;52.702;16.886;2022-11-15T05:29:08;100861.69;;;4.89;86.47
34073;BME280;20346;52.702;16.886;2022-11-15T05:31:54;100866.41;;;4.91;86.70
34073;BME280;20346;52.702;16.886;2022-11-15T05:34:38;100857.45;;;4.92;86.69
34073;BME280;20346;52.702;16.886;2022-11-15T05:37:23;100865.13;;;4.91;86.69
34073;BME280;20346;52.702;16.886;2022-11-15T05:40:08;100866.00;;;4.93;86.72
34073;BME280;20346;52.702;16.886;2022-11-15T05:42:52;100865.53;;;4.89;86.59
34073;BME280;20346;52.702;16.886;2022-11-15T05:45:38;100858.62;;;4.82;86.57
34073;BME280;20346;52.702;16.886;2022-11-15T05:48:22;100860.67;;;4.75;86.51
34073;BME280;20346;52.702;16.886;2022-11-15T05:51:07;100862.73;;;4.69;86.69
34073;BME280;20346;52.702;16.886;2022-11-15T05:53:52;100867.47;;;4.73;86.86
34073;BME280;20346;52.702;16.886;2022-11-15T05:56:37;100860.72;;;4.79;86.89
34073;BME280;20346;52.702;16.886;2022-11-15T05:59:22;100866.72;;;4.81;86.88
34073;BME280;20346;52.702;16.886;2022-11-15T06:02:08;100864.62;;;4.84;86.86
34073;BME280;20346;52.702;16.886;2022-11-15T06:04:54;100868.44;;;4.82;86.80
34073;BME280;20346;52.702;16.886;2022-11-15T06:07:39;100858.56;;;4.77;86.62
34073;BME280;20346;52.702;16.886;2022-11-15T06:10:23;100857.19;;;4.70;86.68
34073;BME280;20346;52.702;16.886;2022-11-15T06:13:08;100854.61;;;4.68;86.72
34073;BME280;20346;52.702;16.886;2022-11-15T06:15:55;100860.16;;;4.64;86.71
34073;BME280;20346;52.702;16.886;2022-11-15T06:18:42;100851.13;;;4.60;86.69
34073;BME280;20346;52.702;16.886;2022-11-15T06:21:26;100869.00;;;4.55;86.71
34073;BME280;20346;52.702;16.886;2022-11-15T06:24:13;100863.00;;;4.53;86.76
34073;BME280;20346;52.702;16.886;2022-11-15T06:26:58;100866.30;;;4.45;86.70
34073;BME280;20346;52.702;16.886;2022-11-15T06:29:43;100865.41;;;4.41;86.73
34073;BME280;20346;52.702;16.886;2022-11-15T06:32:28;100871.41;;;4.43;86.99
34073;BME280;20346;52.702;16.886;2022-11-15T06:35:13;100866.36;;;4.49;87.07
34073;BME280;20346;52.702;16.886;2022-11-15T06:38:07;100863.45;;;4.56;87.05
34073;BME280;20346;52.702;16.886;2022-11-15T06:40:48;100869.48;;;4.59;86.97
34073;BME280;20346;52.702;16.886;2022-11-15T06:43:33;100875.45;;;4.58;86.90
34073;BME280;20346;52.702;16.886;2022-11-15T06:46:18;100867.76;;;4.58;86.92
34073;BME280;20346;52.702;16.886;2022-11-15T06:49:03;100871.16;;;4.57;86.92
34073;BME280;20346;52.702;16.886;2022-11-15T06:51:47;100869.05;;;4.58;86.96
34073;BME280;20346;52.702;16.886;2022-11-15T06:54:32;100874.63;;;4.61;87.06
34073;BME280;20346;52.702;16.886;2022-11-15T06:57:16;100878.10;;;4.66;87.10
34073;BME280;20346;52.702;16.886;2022-11-15T07:00:02;100888.81;;;4.72;87.09
34073;BME280;20346;52.702;16.886;2022-11-15T07:02:48;100887.14;;;4.75;87.08
34073;BME280;20346;52.702;16.886;2022-11-15T07:05:33;100881.23;;;4.81;87.09
34073;BME280;20346;52.702;16.886;2022-11-15T07:08:18;100887.26;;;4.84;87.09
34073;BME280;20346;52.702;16.886;2022-11-15T07:11:04;100885.15;;;4.87;87.03
34073;BME280;20346;52.702;16.886;2022-11-15T07:13:50;100877.92;;;4.89;87.02
34073;BME280;20346;52.702;16.886;2022-11-15T07:16:35;100882.19;;;4.89;86.91
34073;BME280;20346;52.702;16.886;2022-11-15T07:19:21;100887.75;;;4.90;86.98
34073;BME280;20346;52.702;16.886;2022-11-15T07:22:05;100892.88;;;4.90;87.00
34073;BME280;20346;52.702;16.886;2022-11-15T07:24:50;100880.95;;;4.93;87.05
34073;BME280;20346;52.702;16.886;2022-11-15T07:27:35;100894.64;;;4.95;87.09
34073;BME280;20346;52.702;16.886;2022-11-15T07:30:19;100888.71;;;4.99;87.10
34073;BME280;20346;52.702;16.886;2022-11-15T07:33:04;100888.75;;;5.03;87.12
34073;BME280;20346;52.702;16.886;2022-11-15T07:35:48;100881.95;;;5.06;87.12
34073;BME280;20346;52.702;16.886;2022-11-15T07:38:34;100883.66;;;5.06;87.02
34073;BME280;20346;52.702;16.886;2022-11-15T07:41:19;100879.41;;;5.08;87.11
34073;BME280;20346;52.702;16.886;2022-11-15T07:44:03;100877.30;;;5.10;87.03
34073;BME280;20346;52.702;16.886;2022-11-15T07:46:48;100876.89;;;5.12;87.12
34073;BME280;20346;52.702;16.886;2022-11-15T07:49:33;100871.37;;;5.16;87.11
34073;BME280;20346;52.702;16.886;2022-11-15T07:52:18;100858.11;;;5.13;86.98
34073;BME280;20346;52.702;16.886;2022-11-15T07:55:02;100867.91;;;5.11;87.06
34073;BME280;20346;52.702;16.886;2022-11-15T07:57:47;100870.94;;;5.15;87.15
34073;BME280;20346;52.702;16.886;2022-11-15T08:00:32;100861.52;;;5.12;86.95
34073;BME280;20346;52.702;16.886;2022-11-15T08:03:17;100871.27;;;5.05;86.93
34073;BME280;20346;52.702;16.886;2022-11-15T08:06:02;100869.51;;;5.01;86.94
34073;BME280;20346;52.702;16.886;2022-11-15T08:08:47;100868.21;;;4.99;87.05
34073;BME280;20346;52.702;16.886;2022-11-15T08:11:32;100873.79;;;5.02;87.25
34073;BME280;20346;52.702;16.886;2022-11-15T08:14:16;100867.02;;;5.07;87.23
34073;BME280;20346;52.702;16.886;2022-11-15T08:17:01;100864.80;;;5.01;86.99
34073;BME280;20346;52.702;16.886;2022-11-15T08:19:46;100860.06;;;4.97;87.03
34073;BME280;20346;52.702;16.886;2022-11-15T08:22:31;100851.09;;;4.95;87.24
34073;BME280;20346;52.702;16.886;2022-11-15T08:25:17;100854.55;;;5.01;87.32
34073;BME280;20346;52.702;16.886;2022-11-15T08:28:02;100843.05;;;5.04;87.36
34073;BME280;20346;52.702;16.886;2022-11-15T08:30:48;100850.34;;;5.06;87.34
34073;BME280;20346;52.702;16.886;2022-11-15T08:33:33;100842.73;;;5.15;87.54
34073;BME280;20346;52.702;16.886;2022-11-15T08:36:19;100844.48;;;5.22;87.54
34073;BME280;20346;52.702;16.886;2022-11-15T08:39:04;100839.80;;;5.23;87.26
34073;BME280;20346;52.702;16.886;2022-11-15T08:41:49;100831.64;;;5.16;87.09
34073;BME280;20346;52.702;16.886;2022-11-15T08:44:34;100831.66;;;5.17;87.26
34073;BME280;20346;52.702;16.886;2022-11-15T08:47:18;100832.94;;;5.17;87.20
34073;BME280;20346;52.702;16.886;2022-11-15T08:50:03;100833.37;;;5.18;87.33
34073;BME280;20346;52.702;16.886;2022-11-15T08:52:48;100832.55;;;5.24;87.44
34073;BME280;20346;52.702;16.886;2022-11-15T08:55:32;100835.17;;;5.31;87.58
34073;BME280;20346;52.702;16.886;2022-11-15T08:58:21;100818.96;;;5.34;87.38
34073;BME280;20346;52.702;16.886;2022-11-15T09:01:13;100827.94;;;5.34;87.32
34073;BME280;20346;52.702;16.886;2022-11-15T09:04:00;100820.72;;;5.40;87.53
34073;BME280;20346;52.702;16.886;2022-11-15T09:06:45;100826.77;;;5.48;87.61
34073;BME280;20346;52.702;16.886;2022-11-15T09:09:29;100827.27;;;5.56;87.53
34073;BME280;20346;52.702;16.886;2022-11-15T09:12:14;100818.70;;;5.54;87.28
34073;BME280;20346;52.702;16.886;2022-11-15T09:14:58;100822.56;;;5.56;87.35
34073;BME280;20346;52.702;16.886;2022-11-15T09:17:43;100833.70;;;5.59;87.43
34073;BME280;20346;52.702;16.886;2022-11-15T09:20:27;100826.48;;;5.65;87.50
34073;BME280;20346;52.702;16.886;2022-11-15T09:23:12;100831.66;;;5.71;87.45
34073;BME280;20346;52.702;16.886;2022-11-15T09:26:00;100825.67;;;5.71;87.39
34073;BME280;20346;52.702;16.886;2022-11-15T09:28:46;100822.23;;;5.69;87.24
34073;BME280;20346;52.702;16.886;2022-11-15T09:31:31;100826.94;;;5.69;87.37
34073;BME280;20346;52.702;16.886;2022-11-15T09:34:16;100828.66;;;5.70;87.28
34073;BME280;20346;52.702;16.886;2022-11-15T09:37:00;100825.64;;;5.72;87.43
34073;BME280;20346;52.702;16.886;2022-11-15T09:39:45;100821.38;;;5.73;87.36
34073;BME280;20346;52.702;16.886;2022-11-15T09:48:56;100817.50;;;5.65;87.41
34073;BME280;20346;52.702;16.886;2022-11-15T09:51:47;100810.59;;;5.56;87.22
34073;BME280;20346;52.702;16.886;2022-11-15T09:54:37;100808.03;;;5.56;87.48
34073;BME280;20346;52.702;16.886;2022-11-15T09:57:27;100812.36;;;5.63;87.63
34073;BME280;20346;52.702;16.886;2022-11-15T10:00:56;100812.42;;;5.71;87.70
34073;BME280;20346;52.702;16.886;2022-11-15T10:03:09;100815.83;;;5.75;87.49
34073;BME280;20346;52.702;16.886;2022-11-15T10:05:57;100815.86;;;5.78;87.62
34073;BME280;20346;52.702;16.886;2022-11-15T10:11:41;100801.02;;;5.94;87.68
34073;BME280;20346;52.702;16.886;2022-11-15T10:14:27;100793.37;;;6.03;87.66
34073;BME280;20346;52.702;16.886;2022-11-15T10:17:33;100794.22;;;6.01;87.34
34073;BME280;20346;52.702;16.886;2022-11-15T10:20:29;100798.88;;;5.92;87.37
34073;BME280;20346;52.702;16.886;2022-11-15T10:23:18;100795.02;;;5.90;87.48
34073;BME280;20346;52.702;16.886;2022-11-15T10:26:04;100782.20;;;5.95;87.67
34073;BME280;20346;52.702;16.886;2022-11-15T10:28:51;100780.11;;;6.04;87.77
34073;BME280;20346;52.702;16.886;2022-11-15T10:31:37;100782.27;;;6.07;87.59
34073;BME280;20346;52.702;16.886;2022-11-15T10:34:23;100784.02;;;6.13;87.75
34073;BME280;20346;52.702;16.886;2022-11-15T10:37:08;100787.48;;;6.21;87.73
34073;BME280;20346;52.702;16.886;2022-11-15T10:40:06;100786.63;;;6.28;87.74
34073;BME280;20346;52.702;16.886;2022-11-15T10:46:14;100775.08;;;6.33;87.67
34073;BME280;20346;52.702;16.886;2022-11-15T10:48:49;100779.81;;;6.38;87.70
34073;BME280;20346;52.702;16.886;2022-11-15T10:51:33;100778.55;;;6.41;87.57
34073;BME280;20346;52.702;16.886;2022-11-15T10:54:36;100778.08;;;6.32;87.36
34073;BME280;20346;52.702;16.886;2022-11-15T10:57:26;100766.52;;;6.32;87.53
34073;BME280;20346;52.702;16.886;2022-11-15T11:06:14;100772.95;;;6.37;87.51
34073;BME280;20346;52.702;16.886;2022-11-15T11:09:01;100769.55;;;6.42;87.69
34073;BME280;20346;52.702;16.886;2022-11-15T11:11:48;100764.44;;;6.48;87.71
34073;BME280;20346;52.702;16.886;2022-11-15T11:14:34;100754.58;;;6.45;87.49
34073;BME280;20346;52.702;16.886;2022-11-15T11:17:30;100757.15;;;6.43;87.46
34073;BME280;20346;52.702;16.886;2022-11-15T11:20:20;100757.99;;;6.41;87.48
34073;BME280;20346;52.702;16.886;2022-11-15T11:35:22;100746.93;;;6.64;87.63
34073;BME280;20346;52.702;16.886;2022-11-15T11:47:37;100735.37;;;6.84;87.65
34073;BME280;20346;52.702;16.886;2022-11-15T11:50:25;100730.66;;;6.87;87.62
34073;BME280;20346;52.702;16.886;2022-11-15T11:53:15;100732.81;;;6.92;87.62
34073;BME280;20346;52.702;16.886;2022-11-15T11:56:11;100729.38;;;6.88;87.38
34073;BME280;20346;52.702;16.886;2022-11-15T11:59:05;100722.95;;;6.85;87.48
34073;BME280;20346;52.702;16.886;2022-11-15T12:01:53;100715.23;;;6.81;87.43
34073;BME280;20346;52.702;16.886;2022-11-15T12:04:40;100710.09;;;6.81;87.50
34073;BME280;20346;52.702;16.886;2022-11-15T12:07:31;100711.81;;;6.82;87.54
34073;BME280;20346;52.702;16.886;2022-11-15T12:10:18;100712.23;;;6.84;87.56
34073;BME280;20346;52.702;16.886;2022-11-15T12:13:05;100716.95;;;6.86;87.61
34073;BME280;20346;52.702;16.886;2022-11-15T12:16:02;100713.53;;;6.87;87.54
34073;BME280;20346;52.702;16.886;2022-11-15T12:18:49;100711.39;;;6.90;87.60
34073;BME280;20346;52.702;16.886;2022-11-15T12:24:33;100706.25;;;6.93;87.52
34073;BME280;20346;52.702;16.886;2022-11-15T12:27:48;100705.82;;;6.95;87.54
34073;BME280;20346;52.702;16.886;2022-11-15T12:30:54;100701.53;;;6.94;87.53
34073;BME280;20346;52.702;16.886;2022-11-15T12:39:13;100692.54;;;6.91;87.42
34073;BME280;20346;52.702;16.886;2022-11-15T12:47:33;100671.55;;;6.94;87.53
34073;BME280;20346;52.702;16.886;2022-11-15T12:50:45;100675.40;;;6.94;87.47
34073;BME280;20346;52.702;16.886;2022-11-15T12:59:02;100667.26;;;6.84;87.51
34073;BME280;20346;52.702;16.886;2022-11-15T13:04:39;100666.83;;;6.77;87.51
34073;BME280;20346;52.702;16.886;2022-11-15T13:10:32;100664.69;;;6.78;87.53
34073;BME280;20346;52.702;16.886;2022-11-15T13:13:56;100659.55;;;6.81;87.61
34073;BME280;20346;52.702;16.886;2022-11-15T13:16:27;100657.41;;;6.84;87.63
34073;BME280;20346;52.702;16.886;2022-11-15T13:22:04;100645.41;;;6.78;87.45
34073;BME280;20346;52.702;16.886;2022-11-15T13:28:32;100639.02;;;6.74;87.54
34073;BME280;20346;52.702;16.886;2022-11-15T13:31:28;100642.88;;;6.71;87.50
34073;BME280;20346;52.702;16.886;2022-11-15T13:37:13;100629.17;;;6.67;87.62
34073;BME280;20346;52.702;16.886;2022-11-15T13:43:19;100635.16;;;6.68;87.54
34073;BME280;20346;52.702;16.886;2022-11-15T13:49:00;100618.89;;;6.67;87.58
34073;BME280;20346;52.702;16.886;2022-11-15T13:51:46;100625.31;;;6.66;87.55
34073;BME280;20346;52.702;16.886;2022-11-15T13:54:35;100632.59;;;6.61;87.54
34073;BME280;20346;52.702;16.886;2022-11-15T13:57:30;100629.17;;;6.61;87.60
34073;BME280;20346;52.702;16.886;2022-11-15T14:03:31;100628.31;;;6.67;87.70
34073;BME280;20346;52.702;16.886;2022-11-15T14:06:19;100627.89;;;6.70;87.70
34073;BME280;20346;52.702;16.886;2022-11-15T14:11:57;100629.60;;;6.73;87.58
34073;BME280;20346;52.702;16.886;2022-11-15T14:14:45;100622.32;;;6.74;87.60
34073;BME280;20346;52.702;16.886;2022-11-15T14:20:25;100630.03;;;6.72;87.61
34073;BME280;20346;52.702;16.886;2022-11-15T14:23:19;100617.61;;;6.70;87.63
34073;BME280;20346;52.702;16.886;2022-11-15T14:26:51;100619.75;;;6.69;87.66
34073;BME280;20346;52.702;16.886;2022-11-15T14:29:48;100619.75;;;6.71;87.69
34073;BME280;20346;52.702;16.886;2022-11-15T14:32:18;100619.75;;;6.69;87.64
34073;BME280;20346;52.702;16.886;2022-11-15T14:35:02;100615.04;;;6.70;87.69
34073;BME280;20346;52.702;16.886;2022-11-15T14:37:47;100614.19;;;6.71;87.67
34073;BME280;20346;52.702;16.886;2022-11-15T14:40:32;100608.61;;;6.72;87.59
34073;BME280;20346;52.702;16.886;2022-11-15T14:43:17;100611.61;;;6.71;87.56
34073;BME280;20346;52.702;16.886;2022-11-15T14:46:01;100610.33;;;6.71;87.55
34073;BME280;20346;52.702;16.886;2022-11-15T14:48:46;100609.05;;;6.71;87.59
34073;BME280;20346;52.702;16.886;2022-11-15T14:51:30;100602.19;;;6.72;87.55
34073;BME280;20346;52.702;16.886;2022-11-15T14:54:16;100600.48;;;6.72;87.56
34073;BME280;20346;52.702;16.886;2022-11-15T14:57:01;100591.91;;;6.70;87.58
34073;BME280;20346;52.702;16.886;2022-11-15T14:59:45;100597.05;;;6.69;87.52
34073;BME280;20346;52.702;16.886;2022-11-15T15:02:30;100597.91;;;6.64;87.48
34073;BME280;20346;52.702;16.886;2022-11-15T15:05:29;100592.34;;;6.60;87.50
34073;BME280;20346;52.702;16.886;2022-11-15T15:08:18;100590.63;;;6.56;87.54
34073;BME280;20346;52.702;16.886;2022-11-15T15:11:03;100585.06;;;6.54;87.57
34073;BME280;20346;52.702;16.886;2022-11-15T15:13:50;100576.08;;;6.52;87.58
34073;BME280;20346;52.702;16.886;2022-11-15T15:16:36;100584.20;;;6.46;87.48
34073;BME280;20346;52.702;16.886;2022-11-15T15:19:22;100591.48;;;6.40;87.54
34073;BME280;20346;52.702;16.886;2022-11-15T15:22:08;100581.20;;;6.34;87.54
34073;BME280;20346;52.702;16.886;2022-11-15T15:24:54;100582.06;;;6.33;87.63
34073;BME280;20346;52.702;16.886;2022-11-15T15:27:38;100583.77;;;6.34;87.71
34073;BME280;20346;52.702;16.886;2022-11-15T15:30:23;100585.05;;;6.34;87.71
34073;BME280;20346;52.702;16.886;2022-11-15T15:33:08;100584.20;;;6.30;87.62
34073;BME280;20346;52.702;16.886;2022-11-15T15:35:53;100584.62;;;6.27;87.54
34073;BME280;20346;52.702;16.886;2022-11-15T15:38:38;100588.47;;;6.24;87.59
34073;BME280;20346;52.702;16.886;2022-11-15T15:41:24;100588.04;;;6.26;87.67
34073;BME280;20346;52.702;16.886;2022-11-15T15:44:09;100589.33;;;6.27;87.66
34073;BME280;20346;52.702;16.886;2022-11-15T15:46:54;100587.62;;;6.29;87.67
34073;BME280;20346;52.702;16.886;2022-11-15T15:49:39;100586.77;;;6.30;87.65
34073;BME280;20346;52.702;16.886;2022-11-15T15:52:23;100592.33;;;6.30;87.62
34073;BME280;20346;52.702;16.886;2022-11-15T15:55:08;100586.34;;;6.31;87.63
34073;BME280;20346;52.702;16.886;2022-11-15T15:57:54;100584.62;;;6.33;87.65
34073;BME280;20346;52.702;16.886;2022-11-15T16:00:39;100580.34;;;6.35;87.65
34073;BME280;20346;52.702;16.886;2022-11-15T16:03:24;100583.77;;;6.36;87.61
34073;BME280;20346;52.702;16.886;2022-11-15T16:09:17;100573.92;;;6.32;87.53
34073;BME280;20346;52.702;16.886;2022-11-15T16:12:04;100570.92;;;6.31;87.59
34073;BME280;20346;52.702;16.886;2022-11-15T16:14:49;100576.06;;;6.31;87.62
34073;BME280;20346;52.702;16.886;2022-11-15T16:17:36;100573.92;;;6.30;87.60
34073;BME280;20346;52.702;16.886;2022-11-15T16:20:45;100581.62;;;6.27;87.61
34073;BME280;20346;52.702;16.886;2022-11-15T16:23:19;100588.90;;;6.28;87.67
34073;BME280;20346;52.702;16.886;2022-11-15T16:26:20;100592.33;;;6.30;87.69
34073;BME280;20346;52.702;16.886;2022-11-15T16:29:05;100588.47;;;6.30;87.65